sensor_id;sensor_type;location;lat;lon;timestamp;P1;durP1;ratioP1;P2;durP2;ratioP2
57023;SDS011;42916;54.346;18.562;2023-07-24T00:01:26;8.80;;;5.90;;
57023;SDS011;42916;54.346;18.562;2023-07-24T00:03:53;8.90;;;5.80;;
57023;SDS011;42916;54.346;18.562;2023-07-24T00:06:21;7.90;;;5.80;;
57023;SDS011;42916;54.346;18.562;2023-07-24T00:08:47;11.20;;;5.90;;
57023;SDS011;42916;54.346;18.562;2023-07-24T00:11:14;9.80;;;6.50;;
57023;SDS011;42916;54.346;18.562;2023-07-24T00:13:41;8.00;;;5.80;;
57023;SDS011;42916;54.346;18.562;2023-07-24T00:16:08;12.50;;;6.10;;
57023;SDS011;42916;54.346;18.562;2023-07-24T00:18:35;7.80;;;6.10;;
57023;SDS011;42916;54.346;18.562;2023-07-24T00:21:01;9.60;;;6.50;;
57023;SDS011;42916;54.346;18.562;2023-07-24T00:23:28;9.90;;;6.50;;
57023;SDS011;42916;54.346;18.562;2023-07-24T00:25:55;10.60;;;5.80;;
57023;SDS011;42916;54.346;18.562;2023-07-24T00:28:22;8.30;;;5.60;;
57023;SDS011;42916;54.346;18.562;2023-07-24T00:30:48;11.10;;;6.80;;
57023;SDS011;42916;54.346;18.562;2023-07-24T00:35:44;10.30;;;6.10;;
57023;SDS011;42916;54.346;18.562;2023-07-24T00:38:12;8.60;;;5.80;;
57023;SDS011;42916;54.346;18.562;2023-07-24T00:40:39;11.90;;;6.30;;
57023;SDS011;42916;54.346;18.562;2023-07-24T00:43:05;10.80;;;5.90;;
57023;SDS011;42916;54.346;18.562;2023-07-24T00:45:32;8.00;;;5.50;;
57023;SDS011;42916;54.346;18.562;2023-07-24T00:47:59;11.20;;;6.60;;
57023;SDS011;42916;54.346;18.562;2023-07-24T00:50:27;8.60;;;6.40;;
57023;SDS011;42916;54.346;18.562;2023-07-24T00:52:55;9.90;;;6.70;;
57023;SDS011;42916;54.346;18.562;2023-07-24T00:55:22;10.10;;;6.50;;
57023;SDS011;42916;54.346;18.562;2023-07-24T00:57:49;10.10;;;6.00;;
57023;SDS011;42916;54.346;18.562;2023-07-24T01:00:16;7.80;;;5.90;;
57023;SDS011;42916;54.346;18.562;2023-07-24T01:02:43;7.70;;;5.70;;
57023;SDS011;42916;54.346;18.562;2023-07-24T01:05:12;8.00;;;5.40;;
57023;SDS011;42916;54.346;18.562;2023-07-24T01:07:42;10.00;;;6.10;;
57023;SDS011;42916;54.346;18.562;2023-07-24T01:10:10;10.10;;;6.00;;
57023;SDS011;42916;54.346;18.562;2023-07-24T01:18:00;10.00;;;6.40;;
57023;SDS011;42916;54.346;18.562;2023-07-24T01:20:30;13.30;;;6.30;;
57023;SDS011;42916;54.346;18.562;2023-07-24T01:25:36;9.50;;;6.10;;
57023;SDS011;42916;54.346;18.562;2023-07-24T01:28:12;9.60;;;6.70;;
57023;SDS011;42916;54.346;18.562;2023-07-24T01:30:39;9.30;;;6.70;;
57023;SDS011;42916;54.346;18.562;2023-07-24T01:33:07;9.80;;;5.80;;
57023;SDS011;42916;54.346;18.562;2023-07-24T01:35:33;9.40;;;6.60;;
57023;SDS011;42916;54.346;18.562;2023-07-24T01:38:01;9.10;;;6.30;;
57023;SDS011;42916;54.346;18.562;2023-07-24T01:40:29;7.90;;;6.30;;
57023;SDS011;42916;54.346;18.562;2023-07-24T01:42:56;10.90;;;6.40;;
57023;SDS011;42916;54.346;18.562;2023-07-24T01:45:25;11.70;;;7.40;;
57023;SDS011;42916;54.346;18.562;2023-07-24T01:47:52;12.00;;;7.00;;
57023;SDS011;42916;54.346;18.562;2023-07-24T01:50:19;10.00;;;6.70;;
57023;SDS011;42916;54.346;18.562;2023-07-24T01:52:45;12.30;;;7.20;;
57023;SDS011;42916;54.346;18.562;2023-07-24T01:55:12;12.00;;;7.60;;
57023;SDS011;42916;54.346;18.562;2023-07-24T01:57:39;10.80;;;6.80;;
57023;SDS011;42916;54.346;18.562;2023-07-24T02:00:06;10.80;;;6.50;;
57023;SDS011;42916;54.346;18.562;2023-07-24T02:02:33;10.90;;;6.50;;
57023;SDS011;42916;54.346;18.562;2023-07-24T02:05:00;8.10;;;5.90;;
57023;SDS011;42916;54.346;18.562;2023-07-24T02:07:27;9.80;;;6.30;;
57023;SDS011;42916;54.346;18.562;2023-07-24T02:09:54;12.10;;;7.40;;
57023;SDS011;42916;54.346;18.562;2023-07-24T02:12:21;9.40;;;7.40;;
57023;SDS011;42916;54.346;18.562;2023-07-24T02:14:47;13.00;;;7.60;;
57023;SDS011;42916;54.346;18.562;2023-07-24T02:17:18;13.70;;;7.90;;
57023;SDS011;42916;54.346;18.562;2023-07-24T02:19:45;11.30;;;7.40;;
57023;SDS011;42916;54.346;18.562;2023-07-24T02:22:12;11.10;;;7.80;;
57023;SDS011;42916;54.346;18.562;2023-07-24T02:24:38;10.20;;;7.70;;
57023;SDS011;42916;54.346;18.562;2023-07-24T02:27:05;12.70;;;7.50;;
57023;SDS011;42916;54.346;18.562;2023-07-24T02:29:32;12.80;;;7.90;;
57023;SDS011;42916;54.346;18.562;2023-07-24T02:31:59;9.40;;;6.60;;
57023;SDS011;42916;54.346;18.562;2023-07-24T02:34:26;11.90;;;7.10;;
57023;SDS011;42916;54.346;18.562;2023-07-24T02:36:54;12.40;;;6.70;;
57023;SDS011;42916;54.346;18.562;2023-07-24T02:39:21;10.60;;;6.50;;
57023;SDS011;42916;54.346;18.562;2023-07-24T02:41:48;11.50;;;6.60;;
57023;SDS011;42916;54.346;18.562;2023-07-24T02:44:15;10.80;;;6.90;;
57023;SDS011;42916;54.346;18.562;2023-07-24T02:46:42;11.00;;;7.10;;
57023;SDS011;42916;54.346;18.562;2023-07-24T02:49:09;8.40;;;7.00;;
57023;SDS011;42916;54.346;18.562;2023-07-24T02:51:36;9.90;;;6.80;;
57023;SDS011;42916;54.346;18.562;2023-07-24T02:54:03;9.60;;;6.90;;
57023;SDS011;42916;54.346;18.562;2023-07-24T02:56:30;9.70;;;6.80;;
57023;SDS011;42916;54.346;18.562;2023-07-24T02:58:57;9.50;;;6.70;;
57023;SDS011;42916;54.346;18.562;2023-07-24T03:01:23;10.00;;;6.70;;
57023;SDS011;42916;54.346;18.562;2023-07-24T03:03:50;9.10;;;6.30;;
57023;SDS011;42916;54.346;18.562;2023-07-24T03:06:17;9.70;;;6.40;;
57023;SDS011;42916;54.346;18.562;2023-07-24T03:08:43;10.80;;;6.20;;
57023;SDS011;42916;54.346;18.562;2023-07-24T03:11:10;8.20;;;6.30;;
57023;SDS011;42916;54.346;18.562;2023-07-24T03:13:37;8.80;;;5.90;;
57023;SDS011;42916;54.346;18.562;2023-07-24T03:16:07;9.10;;;6.30;;
57023;SDS011;42916;54.346;18.562;2023-07-24T03:18:34;10.10;;;6.50;;
57023;SDS011;42916;54.346;18.562;2023-07-24T03:21:00;9.50;;;6.40;;
57023;SDS011;42916;54.346;18.562;2023-07-24T03:23:27;10.40;;;6.70;;
57023;SDS011;42916;54.346;18.562;2023-07-24T03:25:54;10.10;;;6.70;;
57023;SDS011;42916;54.346;18.562;2023-07-24T03:28:21;8.80;;;6.30;;
57023;SDS011;42916;54.346;18.562;2023-07-24T03:30:47;10.10;;;6.80;;
57023;SDS011;42916;54.346;18.562;2023-07-24T03:33:14;8.90;;;6.20;;
57023;SDS011;42916;54.346;18.562;2023-07-24T03:35:41;8.50;;;6.20;;
57023;SDS011;42916;54.346;18.562;2023-07-24T03:38:08;9.20;;;6.50;;
57023;SDS011;42916;54.346;18.562;2023-07-24T03:40:35;12.20;;;6.70;;
57023;SDS011;42916;54.346;18.562;2023-07-24T03:43:04;7.50;;;6.20;;
57023;SDS011;42916;54.346;18.562;2023-07-24T03:45:31;9.50;;;6.60;;
57023;SDS011;42916;54.346;18.562;2023-07-24T03:47:58;8.90;;;5.90;;
57023;SDS011;42916;54.346;18.562;2023-07-24T03:50:24;8.20;;;5.70;;
57023;SDS011;42916;54.346;18.562;2023-07-24T03:52:51;9.20;;;6.20;;
57023;SDS011;42916;54.346;18.562;2023-07-24T03:55:18;8.80;;;6.10;;
57023;SDS011;42916;54.346;18.562;2023-07-24T03:57:45;10.90;;;6.30;;
57023;SDS011;42916;54.346;18.562;2023-07-24T04:00:12;8.90;;;5.30;;
57023;SDS011;42916;54.346;18.562;2023-07-24T04:02:39;9.60;;;5.80;;
57023;SDS011;42916;54.346;18.562;2023-07-24T04:05:06;8.00;;;6.10;;
57023;SDS011;42916;54.346;18.562;2023-07-24T04:07:33;9.30;;;6.10;;
57023;SDS011;42916;54.346;18.562;2023-07-24T04:09:59;8.80;;;6.10;;
57023;SDS011;42916;54.346;18.562;2023-07-24T04:12:26;8.80;;;6.50;;
57023;SDS011;42916;54.346;18.562;2023-07-24T04:14:53;9.10;;;6.20;;
57023;SDS011;42916;54.346;18.562;2023-07-24T04:17:19;7.40;;;5.50;;
57023;SDS011;42916;54.346;18.562;2023-07-24T04:19:46;8.10;;;6.30;;
57023;SDS011;42916;54.346;18.562;2023-07-24T04:22:13;8.90;;;5.50;;
57023;SDS011;42916;54.346;18.562;2023-07-24T04:24:40;10.50;;;5.10;;
57023;SDS011;42916;54.346;18.562;2023-07-24T04:27:06;6.40;;;4.90;;
57023;SDS011;42916;54.346;18.562;2023-07-24T04:29:33;10.30;;;5.10;;
57023;SDS011;42916;54.346;18.562;2023-07-24T04:32:00;9.50;;;5.30;;
57023;SDS011;42916;54.346;18.562;2023-07-24T04:34:27;6.40;;;5.00;;
57023;SDS011;42916;54.346;18.562;2023-07-24T04:36:53;6.80;;;5.20;;
57023;SDS011;42916;54.346;18.562;2023-07-24T04:39:20;6.70;;;5.20;;
57023;SDS011;42916;54.346;18.562;2023-07-24T04:41:47;8.40;;;5.30;;
57023;SDS011;42916;54.346;18.562;2023-07-24T04:44:13;9.00;;;5.30;;
57023;SDS011;42916;54.346;18.562;2023-07-24T04:46:40;8.60;;;4.80;;
57023;SDS011;42916;54.346;18.562;2023-07-24T04:49:07;7.50;;;4.20;;
57023;SDS011;42916;54.346;18.562;2023-07-24T04:51:33;6.10;;;4.70;;
57023;SDS011;42916;54.346;18.562;2023-07-24T04:54:00;5.30;;;4.10;;
57023;SDS011;42916;54.346;18.562;2023-07-24T04:56:27;7.50;;;4.70;;
57023;SDS011;42916;54.346;18.562;2023-07-24T04:58:54;7.30;;;5.00;;
57023;SDS011;42916;54.346;18.562;2023-07-24T05:01:20;5.60;;;4.40;;
57023;SDS011;42916;54.346;18.562;2023-07-24T05:03:47;7.00;;;4.40;;
57023;SDS011;42916;54.346;18.562;2023-07-24T05:06:14;7.20;;;4.20;;
57023;SDS011;42916;54.346;18.562;2023-07-24T05:08:41;6.10;;;4.20;;
57023;SDS011;42916;54.346;18.562;2023-07-24T05:11:07;7.30;;;3.80;;
57023;SDS011;42916;54.346;18.562;2023-07-24T05:13:34;9.20;;;4.10;;
57023;SDS011;42916;54.346;18.562;2023-07-24T05:16:01;7.80;;;4.50;;
57023;SDS011;42916;54.346;18.562;2023-07-24T05:18:27;5.40;;;4.10;;
57023;SDS011;42916;54.346;18.562;2023-07-24T05:20:54;5.30;;;4.10;;
57023;SDS011;42916;54.346;18.562;2023-07-24T05:23:21;5.80;;;4.50;;
57023;SDS011;42916;54.346;18.562;2023-07-24T05:25:55;5.30;;;4.00;;
57023;SDS011;42916;54.346;18.562;2023-07-24T05:28:23;7.60;;;4.50;;
57023;SDS011;42916;54.346;18.562;2023-07-24T05:30:49;5.80;;;3.60;;
57023;SDS011;42916;54.346;18.562;2023-07-24T05:33:16;6.00;;;4.10;;
57023;SDS011;42916;54.346;18.562;2023-07-24T05:35:43;5.40;;;4.00;;
57023;SDS011;42916;54.346;18.562;2023-07-24T05:38:10;7.40;;;4.40;;
57023;SDS011;42916;54.346;18.562;2023-07-24T05:40:37;7.20;;;4.50;;
57023;SDS011;42916;54.346;18.562;2023-07-24T05:43:03;4.80;;;4.10;;
57023;SDS011;42916;54.346;18.562;2023-07-24T05:45:30;5.80;;;4.50;;
57023;SDS011;42916;54.346;18.562;2023-07-24T05:47:57;5.80;;;3.90;;
57023;SDS011;42916;54.346;18.562;2023-07-24T05:50:24;4.60;;;4.00;;
57023;SDS011;42916;54.346;18.562;2023-07-24T05:52:50;7.90;;;4.00;;
57023;SDS011;42916;54.346;18.562;2023-07-24T05:55:17;5.20;;;4.20;;
57023;SDS011;42916;54.346;18.562;2023-07-24T05:57:44;7.60;;;4.20;;
57023;SDS011;42916;54.346;18.562;2023-07-24T06:00:11;5.50;;;4.50;;
57023;SDS011;42916;54.346;18.562;2023-07-24T06:02:38;6.30;;;4.00;;
57023;SDS011;42916;54.346;18.562;2023-07-24T06:05:05;5.40;;;4.60;;
57023;SDS011;42916;54.346;18.562;2023-07-24T06:07:32;5.30;;;4.00;;
57023;SDS011;42916;54.346;18.562;2023-07-24T06:09:58;5.70;;;4.00;;
57023;SDS011;42916;54.346;18.562;2023-07-24T06:12:25;5.30;;;3.40;;
57023;SDS011;42916;54.346;18.562;2023-07-24T06:14:52;6.10;;;4.30;;
57023;SDS011;42916;54.346;18.562;2023-07-24T06:17:18;4.50;;;3.60;;
57023;SDS011;42916;54.346;18.562;2023-07-24T06:19:45;7.50;;;3.80;;
57023;SDS011;42916;54.346;18.562;2023-07-24T06:22:12;6.30;;;4.10;;
57023;SDS011;42916;54.346;18.562;2023-07-24T06:24:39;5.40;;;3.90;;
57023;SDS011;42916;54.346;18.562;2023-07-24T06:27:05;4.90;;;3.80;;
57023;SDS011;42916;54.346;18.562;2023-07-24T06:29:35;5.70;;;4.00;;
57023;SDS011;42916;54.346;18.562;2023-07-24T06:32:02;4.90;;;3.50;;
57023;SDS011;42916;54.346;18.562;2023-07-24T06:34:29;4.70;;;3.70;;
57023;SDS011;42916;54.346;18.562;2023-07-24T06:36:56;6.10;;;3.80;;
57023;SDS011;42916;54.346;18.562;2023-07-24T06:39:22;6.20;;;3.40;;
57023;SDS011;42916;54.346;18.562;2023-07-24T06:41:51;5.80;;;3.70;;
57023;SDS011;42916;54.346;18.562;2023-07-24T06:44:19;5.40;;;3.80;;
57023;SDS011;42916;54.346;18.562;2023-07-24T06:46:46;5.80;;;3.60;;
57023;SDS011;42916;54.346;18.562;2023-07-24T06:49:13;5.10;;;3.30;;
57023;SDS011;42916;54.346;18.562;2023-07-24T06:51:39;3.70;;;2.90;;
57023;SDS011;42916;54.346;18.562;2023-07-24T06:54:06;4.00;;;3.10;;
57023;SDS011;42916;54.346;18.562;2023-07-24T06:56:33;5.70;;;3.50;;
57023;SDS011;42916;54.346;18.562;2023-07-24T06:59:00;5.60;;;3.50;;
57023;SDS011;42916;54.346;18.562;2023-07-24T07:01:27;4.00;;;3.10;;
57023;SDS011;42916;54.346;18.562;2023-07-24T07:03:53;3.60;;;3.20;;
57023;SDS011;42916;54.346;18.562;2023-07-24T07:06:20;4.10;;;3.50;;
57023;SDS011;42916;54.346;18.562;2023-07-24T07:08:47;3.90;;;3.10;;
57023;SDS011;42916;54.346;18.562;2023-07-24T07:11:14;4.40;;;3.40;;
57023;SDS011;42916;54.346;18.562;2023-07-24T07:13:40;5.90;;;3.40;;
57023;SDS011;42916;54.346;18.562;2023-07-24T07:16:07;4.40;;;2.90;;
57023;SDS011;42916;54.346;18.562;2023-07-24T07:18:34;5.00;;;2.90;;
57023;SDS011;42916;54.346;18.562;2023-07-24T07:21:00;5.60;;;3.10;;
57023;SDS011;42916;54.346;18.562;2023-07-24T07:23:27;4.00;;;3.20;;
57023;SDS011;42916;54.346;18.562;2023-07-24T07:25:54;4.20;;;3.10;;
57023;SDS011;42916;54.346;18.562;2023-07-24T07:28:21;4.60;;;3.20;;
57023;SDS011;42916;54.346;18.562;2023-07-24T07:30:48;3.70;;;2.90;;
57023;SDS011;42916;54.346;18.562;2023-07-24T07:33:15;4.80;;;3.20;;
57023;SDS011;42916;54.346;18.562;2023-07-24T07:35:41;3.50;;;2.80;;
57023;SDS011;42916;54.346;18.562;2023-07-24T07:38:09;3.10;;;2.70;;
57023;SDS011;42916;54.346;18.562;2023-07-24T07:40:36;4.20;;;2.80;;
57023;SDS011;42916;54.346;18.562;2023-07-24T07:43:05;4.70;;;2.90;;
57023;SDS011;42916;54.346;18.562;2023-07-24T07:45:32;3.70;;;2.70;;
57023;SDS011;42916;54.346;18.562;2023-07-24T07:47:59;3.50;;;3.00;;
57023;SDS011;42916;54.346;18.562;2023-07-24T07:50:26;4.10;;;2.90;;
57023;SDS011;42916;54.346;18.562;2023-07-24T07:52:53;4.90;;;3.00;;
57023;SDS011;42916;54.346;18.562;2023-07-24T07:55:19;4.10;;;2.70;;
57023;SDS011;42916;54.346;18.562;2023-07-24T07:57:46;3.70;;;3.00;;
57023;SDS011;42916;54.346;18.562;2023-07-24T08:00:13;4.10;;;2.90;;
57023;SDS011;42916;54.346;18.562;2023-07-24T08:02:40;3.40;;;3.00;;
57023;SDS011;42916;54.346;18.562;2023-07-24T08:05:07;3.70;;;2.80;;
57023;SDS011;42916;54.346;18.562;2023-07-24T08:07:35;3.70;;;3.10;;
57023;SDS011;42916;54.346;18.562;2023-07-24T08:10:02;5.00;;;3.20;;
57023;SDS011;42916;54.346;18.562;2023-07-24T08:12:29;4.70;;;3.10;;
57023;SDS011;42916;54.346;18.562;2023-07-24T08:14:56;4.40;;;3.40;;
57023;SDS011;42916;54.346;18.562;2023-07-24T08:17:23;4.60;;;3.10;;
57023;SDS011;42916;54.346;18.562;2023-07-24T08:19:50;4.00;;;3.20;;
57023;SDS011;42916;54.346;18.562;2023-07-24T08:22:16;7.30;;;3.40;;
57023;SDS011;42916;54.346;18.562;2023-07-24T08:24:45;6.80;;;3.50;;
57023;SDS011;42916;54.346;18.562;2023-07-24T08:27:13;5.50;;;3.00;;
57023;SDS011;42916;54.346;18.562;2023-07-24T08:29:40;5.70;;;3.50;;
57023;SDS011;42916;54.346;18.562;2023-07-24T08:32:07;4.80;;;3.10;;
57023;SDS011;42916;54.346;18.562;2023-07-24T08:34:34;4.50;;;3.20;;
57023;SDS011;42916;54.346;18.562;2023-07-24T08:37:00;6.10;;;3.70;;
57023;SDS011;42916;54.346;18.562;2023-07-24T08:39:27;4.20;;;3.00;;
57023;SDS011;42916;54.346;18.562;2023-07-24T08:41:54;5.40;;;3.60;;
57023;SDS011;42916;54.346;18.562;2023-07-24T08:44:21;7.90;;;3.60;;
57023;SDS011;42916;54.346;18.562;2023-07-24T08:46:51;4.10;;;2.90;;
57023;SDS011;42916;54.346;18.562;2023-07-24T08:49:18;5.00;;;3.20;;
57023;SDS011;42916;54.346;18.562;2023-07-24T08:51:45;5.10;;;3.00;;
57023;SDS011;42916;54.346;18.562;2023-07-24T08:54:13;5.00;;;3.10;;
57023;SDS011;42916;54.346;18.562;2023-07-24T08:56:40;3.80;;;3.00;;
57023;SDS011;42916;54.346;18.562;2023-07-24T08:59:08;4.00;;;2.70;;
57023;SDS011;42916;54.346;18.562;2023-07-24T09:01:34;6.20;;;3.30;;
57023;SDS011;42916;54.346;18.562;2023-07-24T09:04:01;3.90;;;3.00;;
57023;SDS011;42916;54.346;18.562;2023-07-24T09:06:28;5.00;;;2.90;;
57023;SDS011;42916;54.346;18.562;2023-07-24T09:08:55;4.70;;;3.40;;
57023;SDS011;42916;54.346;18.562;2023-07-24T09:11:22;4.20;;;3.10;;
57023;SDS011;42916;54.346;18.562;2023-07-24T09:13:48;3.80;;;2.70;;
57023;SDS011;42916;54.346;18.562;2023-07-24T09:16:25;5.70;;;2.70;;
57023;SDS011;42916;54.346;18.562;2023-07-24T09:18:53;4.10;;;2.60;;
57023;SDS011;42916;54.346;18.562;2023-07-24T09:21:26;4.20;;;2.60;;
57023;SDS011;42916;54.346;18.562;2023-07-24T09:23:55;4.40;;;2.30;;
57023;SDS011;42916;54.346;18.562;2023-07-24T09:26:21;3.70;;;3.00;;
57023;SDS011;42916;54.346;18.562;2023-07-24T09:28:54;3.80;;;2.80;;
57023;SDS011;42916;54.346;18.562;2023-07-24T09:31:21;3.60;;;2.80;;
57023;SDS011;42916;54.346;18.562;2023-07-24T09:33:48;5.40;;;3.10;;
57023;SDS011;42916;54.346;18.562;2023-07-24T09:36:14;4.00;;;2.70;;
57023;SDS011;42916;54.346;18.562;2023-07-24T09:38:41;3.90;;;2.70;;
57023;SDS011;42916;54.346;18.562;2023-07-24T09:41:10;5.30;;;3.20;;
57023;SDS011;42916;54.346;18.562;2023-07-24T09:43:38;6.90;;;3.30;;
57023;SDS011;42916;54.346;18.562;2023-07-24T09:46:05;5.30;;;3.00;;
57023;SDS011;42916;54.346;18.562;2023-07-24T09:48:33;5.50;;;3.30;;
57023;SDS011;42916;54.346;18.562;2023-07-24T09:51:01;7.20;;;2.80;;
57023;SDS011;42916;54.346;18.562;2023-07-24T09:53:32;5.20;;;2.90;;
57023;SDS011;42916;54.346;18.562;2023-07-24T09:56:10;7.70;;;3.40;;
57023;SDS011;42916;54.346;18.562;2023-07-24T09:58:38;5.10;;;3.00;;
57023;SDS011;42916;54.346;18.562;2023-07-24T10:01:08;6.80;;;3.30;;
57023;SDS011;42916;54.346;18.562;2023-07-24T10:03:46;7.00;;;3.20;;
57023;SDS011;42916;54.346;18.562;2023-07-24T10:06:14;6.20;;;3.30;;
57023;SDS011;42916;54.346;18.562;2023-07-24T10:08:42;5.00;;;2.90;;
57023;SDS011;42916;54.346;18.562;2023-07-24T10:11:13;4.40;;;3.00;;
57023;SDS011;42916;54.346;18.562;2023-07-24T10:13:41;4.00;;;2.90;;
57023;SDS011;42916;54.346;18.562;2023-07-24T10:16:08;5.90;;;2.90;;
57023;SDS011;42916;54.346;18.562;2023-07-24T10:18:41;5.30;;;2.60;;
57023;SDS011;42916;54.346;18.562;2023-07-24T10:21:11;3.80;;;2.80;;
57023;SDS011;42916;54.346;18.562;2023-07-24T10:23:42;6.50;;;3.10;;
57023;SDS011;42916;54.346;18.562;2023-07-24T10:26:10;5.60;;;2.70;;
57023;SDS011;42916;54.346;18.562;2023-07-24T10:28:38;5.40;;;3.20;;
57023;SDS011;42916;54.346;18.562;2023-07-24T10:31:06;4.10;;;2.60;;
57023;SDS011;42916;54.346;18.562;2023-07-24T10:33:44;3.50;;;2.50;;
57023;SDS011;42916;54.346;18.562;2023-07-24T10:36:12;5.20;;;3.00;;
57023;SDS011;42916;54.346;18.562;2023-07-24T10:38:40;3.00;;;2.40;;
57023;SDS011;42916;54.346;18.562;2023-07-24T10:41:09;4.50;;;2.70;;
57023;SDS011;42916;54.346;18.562;2023-07-24T10:43:44;7.10;;;3.10;;
57023;SDS011;42916;54.346;18.562;2023-07-24T10:46:19;5.30;;;2.60;;
57023;SDS011;42916;54.346;18.562;2023-07-24T10:48:47;6.20;;;2.80;;
57023;SDS011;42916;54.346;18.562;2023-07-24T10:51:16;4.00;;;2.90;;
57023;SDS011;42916;54.346;18.562;2023-07-24T10:53:47;2.80;;;2.40;;
57023;SDS011;42916;54.346;18.562;2023-07-24T10:56:15;3.00;;;2.50;;
57023;SDS011;42916;54.346;18.562;2023-07-24T10:58:43;3.80;;;2.50;;
57023;SDS011;42916;54.346;18.562;2023-07-24T11:01:10;3.60;;;3.10;;
57023;SDS011;42916;54.346;18.562;2023-07-24T11:03:37;4.40;;;2.90;;
57023;SDS011;42916;54.346;18.562;2023-07-24T11:06:18;4.40;;;2.60;;
57023;SDS011;42916;54.346;18.562;2023-07-24T11:08:56;4.60;;;2.60;;
57023;SDS011;42916;54.346;18.562;2023-07-24T11:14:02;3.30;;;2.40;;
57023;SDS011;42916;54.346;18.562;2023-07-24T11:16:30;6.60;;;2.80;;
57023;SDS011;42916;54.346;18.562;2023-07-24T11:18:59;3.70;;;2.30;;
57023;SDS011;42916;54.346;18.562;2023-07-24T11:21:26;5.30;;;3.20;;
57023;SDS011;42916;54.346;18.562;2023-07-24T11:23:53;3.70;;;2.60;;
57023;SDS011;42916;54.346;18.562;2023-07-24T11:26:22;3.80;;;2.80;;
57023;SDS011;42916;54.346;18.562;2023-07-24T11:28:49;3.80;;;2.40;;
57023;SDS011;42916;54.346;18.562;2023-07-24T11:31:17;4.10;;;2.90;;
57023;SDS011;42916;54.346;18.562;2023-07-24T11:33:47;4.40;;;2.70;;
57023;SDS011;42916;54.346;18.562;2023-07-24T11:36:15;3.00;;;2.70;;
57023;SDS011;42916;54.346;18.562;2023-07-24T11:38:44;4.40;;;2.80;;
57023;SDS011;42916;54.346;18.562;2023-07-24T11:41:12;5.80;;;2.50;;
57023;SDS011;42916;54.346;18.562;2023-07-24T11:43:45;3.50;;;2.70;;
57023;SDS011;42916;54.346;18.562;2023-07-24T11:46:22;6.00;;;2.40;;
57023;SDS011;42916;54.346;18.562;2023-07-24T11:48:53;3.60;;;2.60;;
57023;SDS011;42916;54.346;18.562;2023-07-24T11:51:23;5.30;;;2.60;;
57023;SDS011;42916;54.346;18.562;2023-07-24T11:53:52;4.40;;;3.10;;
57023;SDS011;42916;54.346;18.562;2023-07-24T11:56:19;3.60;;;2.90;;
57023;SDS011;42916;54.346;18.562;2023-07-24T11:58:46;4.40;;;2.80;;
57023;SDS011;42916;54.346;18.562;2023-07-24T12:01:13;3.20;;;2.80;;
57023;SDS011;42916;54.346;18.562;2023-07-24T12:03:40;3.80;;;2.80;;
57023;SDS011;42916;54.346;18.562;2023-07-24T12:06:13;5.60;;;3.40;;
57023;SDS011;42916;54.346;18.562;2023-07-24T12:08:42;4.20;;;2.80;;
57023;SDS011;42916;54.346;18.562;2023-07-24T12:11:17;3.10;;;2.80;;
57023;SDS011;42916;54.346;18.562;2023-07-24T12:13:45;5.20;;;2.80;;
57023;SDS011;42916;54.346;18.562;2023-07-24T12:16:11;4.40;;;2.60;;
57023;SDS011;42916;54.346;18.562;2023-07-24T12:18:38;4.00;;;2.70;;
57023;SDS011;42916;54.346;18.562;2023-07-24T12:21:05;3.40;;;2.60;;
57023;SDS011;42916;54.346;18.562;2023-07-24T12:23:32;3.20;;;2.50;;
57023;SDS011;42916;54.346;18.562;2023-07-24T12:25:59;4.00;;;2.60;;
57023;SDS011;42916;54.346;18.562;2023-07-24T12:28:25;7.10;;;2.90;;
57023;SDS011;42916;54.346;18.562;2023-07-24T12:30:52;4.00;;;2.70;;
57023;SDS011;42916;54.346;18.562;2023-07-24T12:33:19;2.80;;;2.50;;
57023;SDS011;42916;54.346;18.562;2023-07-24T12:35:49;4.20;;;2.90;;
57023;SDS011;42916;54.346;18.562;2023-07-24T12:38:17;3.00;;;2.10;;
57023;SDS011;42916;54.346;18.562;2023-07-24T12:40:44;4.10;;;2.60;;
57023;SDS011;42916;54.346;18.562;2023-07-24T12:43:10;3.40;;;2.30;;
57023;SDS011;42916;54.346;18.562;2023-07-24T12:45:37;3.10;;;2.00;;
57023;SDS011;42916;54.346;18.562;2023-07-24T12:48:04;3.60;;;2.30;;
57023;SDS011;42916;54.346;18.562;2023-07-24T12:50:30;3.60;;;2.30;;
57023;SDS011;42916;54.346;18.562;2023-07-24T12:52:57;3.60;;;2.00;;
57023;SDS011;42916;54.346;18.562;2023-07-24T12:55:24;2.10;;;1.90;;
57023;SDS011;42916;54.346;18.562;2023-07-24T12:57:51;2.80;;;2.10;;
57023;SDS011;42916;54.346;18.562;2023-07-24T13:00:17;3.80;;;2.00;;
57023;SDS011;42916;54.346;18.562;2023-07-24T13:02:44;2.20;;;2.00;;
57023;SDS011;42916;54.346;18.562;2023-07-24T13:05:11;3.50;;;2.00;;
57023;SDS011;42916;54.346;18.562;2023-07-24T13:07:38;3.50;;;1.90;;
57023;SDS011;42916;54.346;18.562;2023-07-24T13:10:05;2.40;;;2.00;;
57023;SDS011;42916;54.346;18.562;2023-07-24T13:12:32;3.50;;;2.10;;
57023;SDS011;42916;54.346;18.562;2023-07-24T13:14:59;2.60;;;2.00;;
57023;SDS011;42916;54.346;18.562;2023-07-24T13:17:25;2.90;;;2.40;;
57023;SDS011;42916;54.346;18.562;2023-07-24T13:19:52;2.50;;;1.90;;
57023;SDS011;42916;54.346;18.562;2023-07-24T13:22:19;4.60;;;2.30;;
57023;SDS011;42916;54.346;18.562;2023-07-24T13:24:46;2.40;;;1.80;;
57023;SDS011;42916;54.346;18.562;2023-07-24T13:27:13;3.80;;;2.10;;
57023;SDS011;42916;54.346;18.562;2023-07-24T13:29:39;5.40;;;2.30;;
57023;SDS011;42916;54.346;18.562;2023-07-24T13:32:06;2.80;;;2.00;;
57023;SDS011;42916;54.346;18.562;2023-07-24T13:34:33;4.10;;;2.00;;
57023;SDS011;42916;54.346;18.562;2023-07-24T13:37:00;3.40;;;2.10;;
57023;SDS011;42916;54.346;18.562;2023-07-24T13:39:27;3.90;;;2.10;;
57023;SDS011;42916;54.346;18.562;2023-07-24T13:41:55;2.40;;;1.80;;
57023;SDS011;42916;54.346;18.562;2023-07-24T13:44:22;3.10;;;2.00;;
57023;SDS011;42916;54.346;18.562;2023-07-24T13:46:49;2.10;;;1.80;;
57023;SDS011;42916;54.346;18.562;2023-07-24T13:49:15;3.10;;;1.80;;
57023;SDS011;42916;54.346;18.562;2023-07-24T13:51:42;4.30;;;2.10;;
57023;SDS011;42916;54.346;18.562;2023-07-24T13:54:09;2.40;;;1.90;;
57023;SDS011;42916;54.346;18.562;2023-07-24T13:56:36;3.10;;;1.80;;
57023;SDS011;42916;54.346;18.562;2023-07-24T13:59:02;2.50;;;2.00;;
57023;SDS011;42916;54.346;18.562;2023-07-24T14:01:29;4.30;;;2.00;;
57023;SDS011;42916;54.346;18.562;2023-07-24T14:03:56;4.70;;;2.40;;
57023;SDS011;42916;54.346;18.562;2023-07-24T14:06:23;4.20;;;1.80;;
57023;SDS011;42916;54.346;18.562;2023-07-24T14:08:49;3.20;;;2.20;;
57023;SDS011;42916;54.346;18.562;2023-07-24T14:11:16;3.40;;;2.30;;
57023;SDS011;42916;54.346;18.562;2023-07-24T19:28:34;11.30;;;5.40;;
57023;SDS011;42916;54.346;18.562;2023-07-24T19:31:01;9.50;;;5.60;;
57023;SDS011;42916;54.346;18.562;2023-07-24T19:33:27;10.70;;;6.00;;
57023;SDS011;42916;54.346;18.562;2023-07-24T19:35:59;9.30;;;5.60;;
57023;SDS011;42916;54.346;18.562;2023-07-24T19:38:26;9.00;;;5.90;;
57023;SDS011;42916;54.346;18.562;2023-07-24T19:40:56;12.60;;;6.10;;
57023;SDS011;42916;54.346;18.562;2023-07-24T19:43:23;10.90;;;5.80;;
57023;SDS011;42916;54.346;18.562;2023-07-24T19:45:49;10.00;;;5.90;;
57023;SDS011;42916;54.346;18.562;2023-07-24T19:48:16;9.00;;;5.50;;
57023;SDS011;42916;54.346;18.562;2023-07-24T19:50:49;10.30;;;5.70;;
57023;SDS011;42916;54.346;18.562;2023-07-24T19:53:22;9.40;;;6.50;;
57023;SDS011;42916;54.346;18.562;2023-07-24T19:55:49;10.20;;;6.60;;
57023;SDS011;42916;54.346;18.562;2023-07-24T19:58:17;9.10;;;6.00;;
57023;SDS011;42916;54.346;18.562;2023-07-24T20:00:43;10.70;;;6.50;;
57023;SDS011;42916;54.346;18.562;2023-07-24T20:03:14;13.20;;;6.20;;